Metar z połowy godziny Komunikat METAR ze strony awiacja.imgw.pl Metar G30 EPWR METAR EPWR 240430Z 19005KT 9999 SCT042 04/01 Q1022 =